PGT1794 LTFJ-LTFE
Flight info
| Callsign | PGT1794 |
|---|---|
| Flight time | 1h 13m |
| Altitude | 24000 |
| Route | ROXUK UT409 NUMTI DCT KULAR UT44 KAVAK |
| Aircraft | A320/M-SDE3FGHIRWY/LB1 |
Departure
| Time | 2026-04-22 12:14 |
|---|---|
| Airport | Istanbul Sabiha Gökçen International Airport (LTFJ) |
Arrival
| Time | 2026-04-22 13:28 |
|---|---|
| Airport | Milas Bodrum International Airport (LTFE) |
| Time | Latitude | Longitude | Altitude | Speed | Heading |
|---|---|---|---|---|---|
| 2026-04-22 11:57 | 40.90285 | 29.31230 | 321 ft | 0 kts | 154° |
| 2026-04-22 12:05 | 40.90287 | 29.31229 | 321 ft | 2 kts | 154° |
| 2026-04-22 12:06 | 40.90301 | 29.31220 | 319 ft | 2 kts | 154° |
| 2026-04-22 12:06 | 40.90316 | 29.31210 | 321 ft | 2 kts | 154° |
| 2026-04-22 12:06 | 40.90331 | 29.31201 | 320 ft | 2 kts | 154° |
| 2026-04-22 12:06 | 40.90346 | 29.31195 | 319 ft | 2 kts | 210° |
| 2026-04-22 12:07 | 40.90351 | 29.31198 | 319 ft | 0 kts | 239° |
| 2026-04-22 12:07 | 40.90351 | 29.31197 | 320 ft | 0 kts | 239° |
| 2026-04-22 12:07 | 40.90349 | 29.31194 | 320 ft | 0 kts | 239° |
| 2026-04-22 12:07 | 40.90345 | 29.31181 | 320 ft | 6 kts | 251° |
| 2026-04-22 12:08 | 40.90321 | 29.31089 | 321 ft | 13 kts | 246° |
| 2026-04-22 12:08 | 40.90289 | 29.30997 | 321 ft | 9 kts | 244° |
| 2026-04-22 12:08 | 40.90259 | 29.30915 | 321 ft | 9 kts | 244° |
| 2026-04-22 12:08 | 40.90192 | 29.30894 | 320 ft | 13 kts | 159° |
| 2026-04-22 12:09 | 40.90107 | 29.30928 | 321 ft | 11 kts | 184° |
| 2026-04-22 12:09 | 40.90045 | 29.30863 | 321 ft | 18 kts | 239° |
| 2026-04-22 12:09 | 40.89994 | 29.30729 | 320 ft | 14 kts | 244° |
| 2026-04-22 12:09 | 40.89947 | 29.30603 | 321 ft | 20 kts | 244° |
| 2026-04-22 12:10 | 40.89891 | 29.30453 | 320 ft | 16 kts | 244° |
| 2026-04-22 12:10 | 40.89848 | 29.30336 | 320 ft | 12 kts | 244° |
| 2026-04-22 12:10 | 40.89808 | 29.30227 | 321 ft | 18 kts | 245° |
| 2026-04-22 12:10 | 40.89757 | 29.30082 | 320 ft | 16 kts | 245° |
| 2026-04-22 12:11 | 40.89707 | 29.29947 | 321 ft | 22 kts | 244° |
| 2026-04-22 12:11 | 40.89645 | 29.29780 | 320 ft | 18 kts | 244° |
| 2026-04-22 12:11 | 40.89596 | 29.29646 | 321 ft | 16 kts | 244° |
| 2026-04-22 12:11 | 40.89546 | 29.29512 | 319 ft | 14 kts | 244° |
| 2026-04-22 12:12 | 40.89509 | 29.29412 | 321 ft | 10 kts | 244° |
| 2026-04-22 12:12 | 40.89479 | 29.29330 | 319 ft | 8 kts | 244° |
| 2026-04-22 12:12 | 40.89444 | 29.29268 | 321 ft | 12 kts | 216° |
| 2026-04-22 12:12 | 40.89371 | 29.29267 | 320 ft | 7 kts | 157° |
| 2026-04-22 12:13 | 40.89345 | 29.29282 | 320 ft | 4 kts | 153° |
| 2026-04-22 12:13 | 40.89304 | 29.29331 | 320 ft | 7 kts | 121° |
| 2026-04-22 12:13 | 40.89309 | 29.29430 | 322 ft | 15 kts | 64° |
| 2026-04-22 12:13 | 40.89418 | 29.29722 | 321 ft | 74 kts | 64° |
| 2026-04-22 12:14 | 40.89762 | 29.30657 | 320 ft | 147 kts | 65° |
| 2026-04-22 12:14 | 40.90274 | 29.32069 | 602 ft | 181 kts | 63° |
| 2026-04-22 12:14 | 40.90830 | 29.33569 | 1755 ft | 179 kts | 61° |
| 2026-04-22 12:14 | 40.91382 | 29.35064 | 2752 ft | 188 kts | 62° |
| 2026-04-22 12:15 | 40.91984 | 29.36692 | 3299 ft | 212 kts | 62° |
| 2026-04-22 12:15 | 40.92673 | 29.38552 | 3970 ft | 230 kts | 62° |
| 2026-04-22 12:15 | 40.93360 | 29.40497 | 4726 ft | 243 kts | 70° |
| 2026-04-22 12:15 | 40.93419 | 29.42760 | 5488 ft | 258 kts | 104° |
| 2026-04-22 12:16 | 40.92422 | 29.44780 | 6140 ft | 274 kts | 141° |
| 2026-04-22 12:16 | 40.90738 | 29.46023 | 6789 ft | 282 kts | 160° |
| 2026-04-22 12:16 | 40.88884 | 29.46879 | 6967 ft | 281 kts | 165° |
| 2026-04-22 12:16 | 40.87000 | 29.47654 | 7000 ft | 280 kts | 164° |
| 2026-04-22 12:17 | 40.85157 | 29.48483 | 7007 ft | 280 kts | 162° |
| 2026-04-22 12:17 | 40.83365 | 29.49404 | 7007 ft | 280 kts | 159° |
| 2026-04-22 12:17 | 40.81554 | 29.50438 | 7497 ft | 286 kts | 159° |
| 2026-04-22 12:17 | 40.79742 | 29.51536 | 8465 ft | 287 kts | 160° |
| 2026-04-22 12:18 | 40.77933 | 29.52706 | 9393 ft | 294 kts | 155° |
| 2026-04-22 12:18 | 40.76289 | 29.54436 | 10238 ft | 310 kts | 139° |
| 2026-04-22 12:18 | 40.74922 | 29.56722 | 10840 ft | 329 kts | 133° |
| 2026-04-22 12:18 | 40.73486 | 29.59224 | 11158 ft | 353 kts | 133° |
| 2026-04-22 12:19 | 40.71969 | 29.61870 | 11653 ft | 368 kts | 132° |
| 2026-04-22 12:19 | 40.70300 | 29.64441 | 12359 ft | 370 kts | 142° |
| 2026-04-22 12:19 | 40.68277 | 29.66494 | 13082 ft | 366 kts | 156° |
| 2026-04-22 12:19 | 40.65984 | 29.67905 | 13814 ft | 361 kts | 169° |
| 2026-04-22 12:20 | 40.63554 | 29.68630 | 14480 ft | 356 kts | 181° |
| 2026-04-22 12:20 | 40.61094 | 29.68738 | 15138 ft | 354 kts | 188° |
| 2026-04-22 12:20 | 40.58624 | 29.68716 | 15789 ft | 357 kts | 187° |
| 2026-04-22 12:20 | 40.56123 | 29.68701 | 16464 ft | 360 kts | 187° |
| 2026-04-22 12:21 | 40.53602 | 29.68691 | 17079 ft | 364 kts | 187° |
| 2026-04-22 12:21 | 40.51049 | 29.68685 | 17676 ft | 369 kts | 187° |
| 2026-04-22 12:21 | 40.48462 | 29.68680 | 18276 ft | 373 kts | 186° |
| 2026-04-22 12:21 | 40.45885 | 29.68676 | 18816 ft | 377 kts | 186° |
| 2026-04-22 12:22 | 40.43247 | 29.68671 | 19401 ft | 380 kts | 187° |
| 2026-04-22 12:22 | 40.40585 | 29.68667 | 19967 ft | 384 kts | 187° |
| 2026-04-22 12:22 | 40.37896 | 29.68660 | 20497 ft | 389 kts | 187° |
| 2026-04-22 12:22 | 40.35182 | 29.68653 | 21065 ft | 392 kts | 187° |
| 2026-04-22 12:23 | 40.32438 | 29.68646 | 21631 ft | 395 kts | 187° |
| 2026-04-22 12:23 | 40.29683 | 29.68640 | 22144 ft | 397 kts | 187° |
| 2026-04-22 12:23 | 40.26906 | 29.68633 | 22644 ft | 400 kts | 187° |
| 2026-04-22 12:23 | 40.24112 | 29.68627 | 23146 ft | 403 kts | 187° |
| 2026-04-22 12:24 | 40.21291 | 29.68619 | 23599 ft | 405 kts | 187° |
| 2026-04-22 12:24 | 40.18464 | 29.68609 | 23910 ft | 407 kts | 187° |
| 2026-04-22 12:24 | 40.15611 | 29.68816 | 23986 ft | 412 kts | 182° |
| 2026-04-22 12:24 | 40.12759 | 29.69144 | 23997 ft | 412 kts | 182° |
| 2026-04-22 12:25 | 40.09905 | 29.69474 | 23997 ft | 411 kts | 182° |
| 2026-04-22 12:25 | 40.07087 | 29.69799 | 23980 ft | 411 kts | 182° |
| 2026-04-22 12:25 | 40.04237 | 29.70125 | 23967 ft | 411 kts | 182° |
| 2026-04-22 12:25 | 40.01387 | 29.70450 | 23939 ft | 411 kts | 182° |
| 2026-04-22 12:26 | 39.98530 | 29.70775 | 23968 ft | 413 kts | 182° |
| 2026-04-22 12:26 | 39.95668 | 29.71102 | 23956 ft | 413 kts | 182° |
| 2026-04-22 12:26 | 39.92800 | 29.71432 | 23946 ft | 413 kts | 182° |
| 2026-04-22 12:26 | 39.89920 | 29.71559 | 23945 ft | 405 kts | 191° |
| 2026-04-22 12:27 | 39.87159 | 29.71067 | 23947 ft | 397 kts | 200° |
| 2026-04-22 12:27 | 39.84568 | 29.70080 | 23942 ft | 392 kts | 204° |
| 2026-04-22 12:27 | 39.81964 | 29.69014 | 23911 ft | 392 kts | 204° |
| 2026-04-22 12:27 | 39.79355 | 29.67954 | 23906 ft | 393 kts | 204° |
| 2026-04-22 12:28 | 39.76735 | 29.66898 | 23905 ft | 394 kts | 204° |
| 2026-04-22 12:28 | 39.74108 | 29.65843 | 23902 ft | 397 kts | 204° |
| 2026-04-22 12:28 | 39.71463 | 29.64779 | 23898 ft | 398 kts | 204° |
| 2026-04-22 12:28 | 39.68817 | 29.63717 | 23896 ft | 397 kts | 204° |
| 2026-04-22 12:29 | 39.66188 | 29.62666 | 23885 ft | 396 kts | 204° |
| 2026-04-22 12:29 | 39.63551 | 29.61606 | 23874 ft | 396 kts | 203° |
| 2026-04-22 12:29 | 39.60918 | 29.60552 | 23874 ft | 393 kts | 203° |
| 2026-04-22 12:29 | 39.58339 | 29.59524 | 23633 ft | 382 kts | 204° |
| 2026-04-22 12:30 | 39.55785 | 29.58513 | 23540 ft | 366 kts | 204° |
| 2026-04-22 12:31 | 39.53526 | 29.57614 | 23452 ft | 352 kts | 204° |
| 2026-04-22 12:31 | 39.51232 | 29.56707 | 23369 ft | 338 kts | 204° |
| 2026-04-22 12:31 | 39.49025 | 29.55835 | 23285 ft | 325 kts | 205° |
| 2026-04-22 12:32 | 39.46910 | 29.54996 | 23182 ft | 312 kts | 205° |
| 2026-04-22 12:32 | 39.43577 | 29.53673 | 23061 ft | 293 kts | 206° |
| 2026-04-22 12:32 | 39.41648 | 29.52898 | 22989 ft | 288 kts | 206° |
| 2026-04-22 12:33 | 39.39737 | 29.52124 | 22922 ft | 288 kts | 206° |
| 2026-04-22 12:33 | 39.37829 | 29.51352 | 22852 ft | 287 kts | 206° |
| 2026-04-22 12:33 | 39.35915 | 29.50582 | 22782 ft | 287 kts | 206° |
| 2026-04-22 12:33 | 39.34012 | 29.49822 | 22712 ft | 286 kts | 206° |
| 2026-04-22 12:34 | 39.32108 | 29.49065 | 22647 ft | 286 kts | 206° |
| 2026-04-22 12:34 | 39.30209 | 29.48312 | 22577 ft | 285 kts | 206° |
| 2026-04-22 12:34 | 39.28314 | 29.47560 | 22496 ft | 285 kts | 205° |
| 2026-04-22 12:34 | 39.26417 | 29.46807 | 22428 ft | 285 kts | 205° |
| 2026-04-22 12:35 | 39.24528 | 29.46059 | 22358 ft | 284 kts | 205° |
| 2026-04-22 12:35 | 39.22640 | 29.45311 | 22293 ft | 284 kts | 205° |
| 2026-04-22 12:35 | 39.20753 | 29.44563 | 22218 ft | 283 kts | 205° |
| 2026-04-22 12:35 | 39.18906 | 29.43831 | 22159 ft | 283 kts | 205° |
| 2026-04-22 12:36 | 39.17022 | 29.43089 | 22092 ft | 283 kts | 205° |
| 2026-04-22 12:36 | 39.15163 | 29.42357 | 22027 ft | 282 kts | 205° |
| 2026-04-22 12:36 | 39.13289 | 29.41617 | 21959 ft | 282 kts | 205° |
| 2026-04-22 12:36 | 39.11417 | 29.40878 | 21894 ft | 281 kts | 205° |
| 2026-04-22 12:37 | 39.09542 | 29.40138 | 21808 ft | 282 kts | 205° |
| 2026-04-22 12:37 | 39.07665 | 29.39396 | 21741 ft | 282 kts | 205° |
| 2026-04-22 12:37 | 39.05787 | 29.38657 | 21675 ft | 282 kts | 205° |
| 2026-04-22 12:37 | 39.03911 | 29.37918 | 21606 ft | 282 kts | 205° |
| 2026-04-22 12:38 | 39.02015 | 29.37169 | 21540 ft | 281 kts | 205° |
| 2026-04-22 12:38 | 39.00171 | 29.36441 | 21479 ft | 280 kts | 205° |
| 2026-04-22 12:38 | 38.98310 | 29.35711 | 21421 ft | 279 kts | 205° |
| 2026-04-22 12:38 | 38.96447 | 29.34980 | 21362 ft | 279 kts | 205° |
| 2026-04-22 12:39 | 38.94593 | 29.34252 | 21302 ft | 279 kts | 205° |
| 2026-04-22 12:39 | 38.90883 | 29.32795 | 21174 ft | 278 kts | 205° |
| 2026-04-22 12:39 | 38.89036 | 29.32069 | 21113 ft | 278 kts | 205° |
| 2026-04-22 12:40 | 38.87189 | 29.31343 | 21051 ft | 278 kts | 205° |
| 2026-04-22 12:40 | 38.85340 | 29.30617 | 20989 ft | 277 kts | 205° |
| 2026-04-22 12:40 | 38.83493 | 29.29895 | 20927 ft | 277 kts | 205° |
| 2026-04-22 12:40 | 38.81647 | 29.29174 | 20866 ft | 277 kts | 205° |
| 2026-04-22 12:41 | 38.79806 | 29.28455 | 20805 ft | 277 kts | 205° |
| 2026-04-22 12:41 | 38.77964 | 29.27736 | 20746 ft | 276 kts | 204° |
| 2026-04-22 12:41 | 38.76126 | 29.27020 | 20681 ft | 275 kts | 204° |
| 2026-04-22 12:41 | 38.74296 | 29.26309 | 20609 ft | 275 kts | 204° |
| 2026-04-22 12:42 | 38.72469 | 29.25601 | 20547 ft | 274 kts | 204° |
| 2026-04-22 12:42 | 38.70643 | 29.24893 | 20484 ft | 274 kts | 204° |
| 2026-04-22 12:42 | 38.68822 | 29.24184 | 20423 ft | 274 kts | 205° |
| 2026-04-22 12:42 | 38.67027 | 29.23481 | 20364 ft | 273 kts | 205° |
| 2026-04-22 12:43 | 38.65211 | 29.22768 | 20305 ft | 273 kts | 205° |
| 2026-04-22 12:43 | 38.63396 | 29.22057 | 20243 ft | 273 kts | 205° |
| 2026-04-22 12:43 | 38.61580 | 29.21350 | 20169 ft | 272 kts | 205° |
| 2026-04-22 12:43 | 38.59767 | 29.20644 | 20126 ft | 272 kts | 204° |
| 2026-04-22 12:44 | 38.57954 | 29.19941 | 20061 ft | 272 kts | 204° |
| 2026-04-22 12:44 | 38.56141 | 29.19240 | 19990 ft | 272 kts | 204° |
| 2026-04-22 12:44 | 38.54330 | 29.18539 | 19934 ft | 272 kts | 204° |
| 2026-04-22 12:44 | 38.52517 | 29.17837 | 19875 ft | 272 kts | 204° |
| 2026-04-22 12:45 | 38.50703 | 29.17134 | 19801 ft | 272 kts | 204° |
| 2026-04-22 12:45 | 38.48892 | 29.16430 | 19757 ft | 272 kts | 204° |
| 2026-04-22 12:45 | 38.47084 | 29.15726 | 19694 ft | 272 kts | 204° |
| 2026-04-22 12:45 | 38.45274 | 29.15023 | 19635 ft | 272 kts | 204° |
| 2026-04-22 12:46 | 38.43464 | 29.14323 | 19589 ft | 272 kts | 204° |
| 2026-04-22 12:46 | 38.41659 | 29.13628 | 19523 ft | 271 kts | 204° |
| 2026-04-22 12:46 | 38.39852 | 29.12931 | 19465 ft | 271 kts | 204° |
| 2026-04-22 12:46 | 38.38050 | 29.12234 | 19392 ft | 270 kts | 204° |
| 2026-04-22 12:47 | 38.36253 | 29.11539 | 19335 ft | 270 kts | 204° |
| 2026-04-22 12:47 | 38.34452 | 29.10843 | 19277 ft | 270 kts | 204° |
| 2026-04-22 12:47 | 38.32654 | 29.10151 | 19220 ft | 270 kts | 204° |
| 2026-04-22 12:47 | 38.30852 | 29.09459 | 19162 ft | 270 kts | 204° |
| 2026-04-22 12:48 | 38.29054 | 29.08768 | 19105 ft | 270 kts | 204° |
| 2026-04-22 12:48 | 38.27254 | 29.08072 | 19047 ft | 270 kts | 204° |
| 2026-04-22 12:48 | 38.25459 | 29.07376 | 18990 ft | 269 kts | 204° |
| 2026-04-22 12:48 | 38.23669 | 29.06683 | 18933 ft | 269 kts | 204° |
| 2026-04-22 12:49 | 38.21878 | 29.05995 | 18879 ft | 269 kts | 204° |
| 2026-04-22 12:49 | 38.20087 | 29.05308 | 18823 ft | 269 kts | 204° |
| 2026-04-22 12:49 | 38.18296 | 29.04623 | 18752 ft | 269 kts | 204° |
| 2026-04-22 12:49 | 38.16508 | 29.03938 | 18695 ft | 269 kts | 204° |
| 2026-04-22 12:50 | 38.14719 | 29.03252 | 18642 ft | 269 kts | 204° |
| 2026-04-22 12:50 | 38.12952 | 29.02577 | 18581 ft | 268 kts | 204° |
| 2026-04-22 12:50 | 38.11164 | 29.01894 | 18528 ft | 268 kts | 204° |
| 2026-04-22 12:50 | 38.09378 | 29.01210 | 18469 ft | 268 kts | 204° |
| 2026-04-22 12:51 | 38.07593 | 29.00530 | 18419 ft | 268 kts | 204° |
| 2026-04-22 12:51 | 38.05811 | 28.99847 | 18361 ft | 267 kts | 204° |
| 2026-04-22 12:51 | 38.04009 | 28.99155 | 18309 ft | 267 kts | 204° |
| 2026-04-22 12:51 | 38.02254 | 28.98482 | 18255 ft | 267 kts | 204° |
| 2026-04-22 12:52 | 38.00480 | 28.97803 | 18183 ft | 267 kts | 204° |
| 2026-04-22 12:52 | 37.98695 | 28.97118 | 18120 ft | 268 kts | 204° |
| 2026-04-22 12:52 | 37.96925 | 28.96440 | 18055 ft | 263 kts | 204° |
| 2026-04-22 12:52 | 37.95177 | 28.95771 | 17992 ft | 261 kts | 204° |
| 2026-04-22 12:53 | 37.93442 | 28.95106 | 17934 ft | 260 kts | 204° |
| 2026-04-22 12:53 | 37.91708 | 28.94444 | 17875 ft | 259 kts | 204° |
| 2026-04-22 12:53 | 37.89976 | 28.93785 | 17813 ft | 259 kts | 204° |
| 2026-04-22 12:53 | 37.88252 | 28.93129 | 17752 ft | 258 kts | 204° |
| 2026-04-22 12:54 | 37.86536 | 28.92477 | 17689 ft | 257 kts | 204° |
| 2026-04-22 12:54 | 37.84820 | 28.91826 | 17632 ft | 257 kts | 204° |
| 2026-04-22 12:54 | 37.83105 | 28.91176 | 17576 ft | 257 kts | 204° |
| 2026-04-22 12:54 | 37.81395 | 28.90529 | 17500 ft | 257 kts | 204° |
| 2026-04-22 12:55 | 37.79678 | 28.89879 | 17434 ft | 258 kts | 204° |
| 2026-04-22 12:55 | 37.77961 | 28.89228 | 17378 ft | 257 kts | 204° |
| 2026-04-22 12:55 | 37.76287 | 28.88597 | 17342 ft | 241 kts | 204° |
| 2026-04-22 12:55 | 37.74745 | 28.88015 | 17259 ft | 222 kts | 206° |
| 2026-04-22 12:56 | 37.73335 | 28.87482 | 17215 ft | 203 kts | 206° |
| 2026-04-22 12:56 | 37.72024 | 28.86992 | 17159 ft | 190 kts | 206° |
| 2026-04-22 12:56 | 37.70776 | 28.86519 | 17124 ft | 186 kts | 207° |
| 2026-04-22 12:56 | 37.69543 | 28.86048 | 17079 ft | 184 kts | 207° |
| 2026-04-22 12:57 | 37.68318 | 28.85580 | 17040 ft | 184 kts | 207° |
| 2026-04-22 12:57 | 37.67094 | 28.85112 | 16993 ft | 184 kts | 207° |
| 2026-04-22 12:57 | 37.65869 | 28.84645 | 16956 ft | 184 kts | 207° |
| 2026-04-22 12:57 | 37.64646 | 28.84180 | 16913 ft | 183 kts | 206° |
| 2026-04-22 12:58 | 37.63426 | 28.83719 | 16868 ft | 183 kts | 206° |
| 2026-04-22 12:58 | 37.62209 | 28.83259 | 16821 ft | 183 kts | 206° |
| 2026-04-22 12:58 | 37.60990 | 28.82798 | 16779 ft | 183 kts | 206° |
| 2026-04-22 12:58 | 37.59775 | 28.82341 | 16736 ft | 182 kts | 206° |
| 2026-04-22 12:59 | 37.58579 | 28.81891 | 16696 ft | 182 kts | 206° |
| 2026-04-22 12:59 | 37.57369 | 28.81433 | 16651 ft | 182 kts | 206° |
| 2026-04-22 12:59 | 37.56153 | 28.80970 | 16604 ft | 182 kts | 207° |
| 2026-04-22 12:59 | 37.54942 | 28.80510 | 16575 ft | 182 kts | 206° |
| 2026-04-22 13:00 | 37.53733 | 28.80054 | 16537 ft | 182 kts | 206° |
| 2026-04-22 13:00 | 37.52520 | 28.79596 | 16411 ft | 182 kts | 206° |
| 2026-04-22 13:00 | 37.51311 | 28.79140 | 16207 ft | 181 kts | 206° |
| 2026-04-22 13:00 | 37.50109 | 28.78687 | 16047 ft | 178 kts | 206° |
| 2026-04-22 13:01 | 37.48917 | 28.78238 | 16006 ft | 179 kts | 206° |
| 2026-04-22 13:01 | 37.47723 | 28.77786 | 15936 ft | 180 kts | 206° |
| 2026-04-22 13:01 | 37.46527 | 28.77335 | 15867 ft | 179 kts | 206° |
| 2026-04-22 13:01 | 37.45332 | 28.76888 | 15789 ft | 179 kts | 206° |
| 2026-04-22 13:02 | 37.44137 | 28.76443 | 15708 ft | 179 kts | 206° |
| 2026-04-22 13:02 | 37.42940 | 28.75997 | 15611 ft | 180 kts | 206° |
| 2026-04-22 13:02 | 37.41737 | 28.75545 | 15548 ft | 180 kts | 205° |
| 2026-04-22 13:02 | 37.40538 | 28.75093 | 15471 ft | 179 kts | 205° |
| 2026-04-22 13:03 | 37.39355 | 28.74649 | 15425 ft | 173 kts | 205° |
| 2026-04-22 13:03 | 37.38216 | 28.74211 | 15326 ft | 168 kts | 209° |
| 2026-04-22 13:03 | 37.37177 | 28.73601 | 15247 ft | 162 kts | 219° |
| 2026-04-22 13:03 | 37.36265 | 28.72802 | 15170 ft | 158 kts | 228° |
| 2026-04-22 13:04 | 37.35500 | 28.71858 | 15019 ft | 155 kts | 236° |
| 2026-04-22 13:04 | 37.34875 | 28.70789 | 14794 ft | 149 kts | 245° |
| 2026-04-22 13:04 | 37.34404 | 28.69641 | 14585 ft | 147 kts | 251° |
| 2026-04-22 13:04 | 37.33987 | 28.68473 | 14373 ft | 146 kts | 251° |
| 2026-04-22 13:05 | 37.33568 | 28.67312 | 14170 ft | 146 kts | 251° |
| 2026-04-22 13:05 | 37.33150 | 28.66151 | 13990 ft | 146 kts | 251° |
| 2026-04-22 13:05 | 37.32736 | 28.64997 | 13774 ft | 144 kts | 251° |
| 2026-04-22 13:05 | 37.32327 | 28.63856 | 13553 ft | 143 kts | 250° |
| 2026-04-22 13:06 | 37.31918 | 28.62722 | 13330 ft | 142 kts | 250° |
| 2026-04-22 13:06 | 37.31509 | 28.61591 | 13139 ft | 142 kts | 250° |
| 2026-04-22 13:06 | 37.31101 | 28.60464 | 12941 ft | 142 kts | 250° |
| 2026-04-22 13:06 | 37.30694 | 28.59339 | 12747 ft | 141 kts | 250° |
| 2026-04-22 13:07 | 37.30290 | 28.58224 | 12555 ft | 140 kts | 250° |
| 2026-04-22 13:07 | 37.29888 | 28.57112 | 12357 ft | 139 kts | 250° |
| 2026-04-22 13:07 | 37.29491 | 28.56008 | 12167 ft | 138 kts | 250° |
| 2026-04-22 13:07 | 37.29095 | 28.54911 | 11966 ft | 138 kts | 250° |
| 2026-04-22 13:08 | 37.28700 | 28.53815 | 11820 ft | 139 kts | 250° |
| 2026-04-22 13:08 | 37.28298 | 28.52702 | 11689 ft | 140 kts | 249° |
| 2026-04-22 13:08 | 37.27893 | 28.51582 | 11549 ft | 141 kts | 249° |
| 2026-04-22 13:08 | 37.27487 | 28.50461 | 11406 ft | 141 kts | 249° |
| 2026-04-22 13:09 | 37.27079 | 28.49340 | 11258 ft | 141 kts | 249° |
| 2026-04-22 13:09 | 37.26674 | 28.48221 | 11126 ft | 140 kts | 249° |
| 2026-04-22 13:09 | 37.26272 | 28.47111 | 10975 ft | 139 kts | 248° |
| 2026-04-22 13:09 | 37.25874 | 28.46009 | 10837 ft | 139 kts | 248° |
| 2026-04-22 13:10 | 37.25477 | 28.44911 | 10697 ft | 138 kts | 248° |
| 2026-04-22 13:10 | 37.25082 | 28.43817 | 10562 ft | 140 kts | 248° |
| 2026-04-22 13:10 | 37.24678 | 28.42705 | 10413 ft | 140 kts | 248° |
| 2026-04-22 13:10 | 37.24273 | 28.41591 | 10271 ft | 140 kts | 248° |
| 2026-04-22 13:11 | 37.23868 | 28.40482 | 10133 ft | 140 kts | 248° |
| 2026-04-22 13:11 | 37.23466 | 28.39376 | 9983 ft | 139 kts | 248° |
| 2026-04-22 13:11 | 37.23065 | 28.38276 | 9848 ft | 138 kts | 247° |
| 2026-04-22 13:11 | 37.22668 | 28.37181 | 9686 ft | 138 kts | 248° |
| 2026-04-22 13:12 | 37.22275 | 28.36097 | 9538 ft | 136 kts | 248° |
| 2026-04-22 13:12 | 37.21882 | 28.35018 | 9419 ft | 136 kts | 247° |
| 2026-04-22 13:12 | 37.21489 | 28.33936 | 9289 ft | 136 kts | 247° |
| 2026-04-22 13:12 | 37.21097 | 28.32854 | 9135 ft | 135 kts | 246° |
| 2026-04-22 13:13 | 37.20705 | 28.31774 | 9033 ft | 137 kts | 247° |
| 2026-04-22 13:13 | 37.20309 | 28.30690 | 8876 ft | 137 kts | 247° |
| 2026-04-22 13:13 | 37.19916 | 28.29612 | 8743 ft | 135 kts | 247° |
| 2026-04-22 13:13 | 37.19528 | 28.28551 | 8600 ft | 133 kts | 247° |
| 2026-04-22 13:14 | 37.19142 | 28.27496 | 8468 ft | 133 kts | 246° |
| 2026-04-22 13:14 | 37.18759 | 28.26448 | 8332 ft | 132 kts | 246° |
| 2026-04-22 13:14 | 37.18377 | 28.25399 | 8192 ft | 132 kts | 247° |
| 2026-04-22 13:14 | 37.17994 | 28.24351 | 8062 ft | 133 kts | 247° |
| 2026-04-22 13:15 | 37.17739 | 28.23653 | 7970 ft | 133 kts | 246° |
| 2026-04-22 13:15 | 37.17350 | 28.22588 | 7837 ft | 135 kts | 246° |
| 2026-04-22 13:15 | 37.16961 | 28.21526 | 7697 ft | 133 kts | 246° |
| 2026-04-22 13:15 | 37.16575 | 28.20476 | 7571 ft | 132 kts | 245° |
| 2026-04-22 13:16 | 37.16190 | 28.19426 | 7439 ft | 134 kts | 245° |
| 2026-04-22 13:16 | 37.15797 | 28.18350 | 7394 ft | 137 kts | 245° |
| 2026-04-22 13:16 | 37.15405 | 28.17278 | 7336 ft | 135 kts | 246° |
| 2026-04-22 13:16 | 37.15014 | 28.16207 | 7290 ft | 134 kts | 245° |
| 2026-04-22 13:17 | 37.14626 | 28.15154 | 7217 ft | 134 kts | 245° |
| 2026-04-22 13:17 | 37.14284 | 28.14083 | 7177 ft | 131 kts | 253° |
| 2026-04-22 13:17 | 37.14218 | 28.12952 | 7131 ft | 130 kts | 271° |
| 2026-04-22 13:17 | 37.14344 | 28.11829 | 7123 ft | 132 kts | 275° |
| 2026-04-22 13:18 | 37.14542 | 28.10694 | 7115 ft | 133 kts | 278° |
| 2026-04-22 13:18 | 37.14776 | 28.09568 | 7109 ft | 134 kts | 280° |
| 2026-04-22 13:18 | 37.15028 | 28.08447 | 7121 ft | 134 kts | 281° |
| 2026-04-22 13:18 | 37.15292 | 28.07322 | 7117 ft | 134 kts | 281° |
| 2026-04-22 13:19 | 37.15560 | 28.06196 | 7129 ft | 135 kts | 281° |
| 2026-04-22 13:19 | 37.15834 | 28.05057 | 7120 ft | 137 kts | 281° |
| 2026-04-22 13:19 | 37.16109 | 28.03917 | 7122 ft | 137 kts | 281° |
| 2026-04-22 13:19 | 37.16386 | 28.02774 | 7095 ft | 137 kts | 281° |
| 2026-04-22 13:20 | 37.16663 | 28.01633 | 6959 ft | 137 kts | 281° |
| 2026-04-22 13:20 | 37.16941 | 28.00483 | 6759 ft | 138 kts | 281° |
| 2026-04-22 13:20 | 37.17221 | 27.99331 | 6556 ft | 138 kts | 282° |
| 2026-04-22 13:20 | 37.17499 | 27.98180 | 6328 ft | 138 kts | 280° |
| 2026-04-22 13:21 | 37.17778 | 27.97028 | 6086 ft | 138 kts | 281° |
| 2026-04-22 13:21 | 37.18055 | 27.95882 | 5865 ft | 138 kts | 281° |
| 2026-04-22 13:21 | 37.18336 | 27.94722 | 5611 ft | 140 kts | 281° |
| 2026-04-22 13:21 | 37.18617 | 27.93556 | 5373 ft | 140 kts | 280° |
| 2026-04-22 13:22 | 37.18896 | 27.92405 | 5116 ft | 135 kts | 279° |
| 2026-04-22 13:22 | 37.19166 | 27.91287 | 4904 ft | 134 kts | 279° |
| 2026-04-22 13:22 | 37.19435 | 27.90170 | 4683 ft | 135 kts | 278° |
| 2026-04-22 13:22 | 37.19706 | 27.89048 | 4449 ft | 134 kts | 278° |
| 2026-04-22 13:23 | 37.19976 | 27.87927 | 4213 ft | 135 kts | 280° |
| 2026-04-22 13:23 | 37.20249 | 27.86794 | 3970 ft | 136 kts | 278° |
| 2026-04-22 13:23 | 37.20523 | 27.85659 | 3740 ft | 135 kts | 279° |
| 2026-04-22 13:23 | 37.20795 | 27.84530 | 3502 ft | 134 kts | 281° |
| 2026-04-22 13:24 | 37.21062 | 27.83420 | 3277 ft | 133 kts | 281° |
| 2026-04-22 13:24 | 37.21329 | 27.82310 | 3044 ft | 133 kts | 280° |
| 2026-04-22 13:24 | 37.21593 | 27.81212 | 2819 ft | 130 kts | 279° |
| 2026-04-22 13:24 | 37.21852 | 27.80134 | 2598 ft | 129 kts | 279° |
| 2026-04-22 13:25 | 37.22112 | 27.79054 | 2375 ft | 129 kts | 279° |
| 2026-04-22 13:25 | 37.22370 | 27.77979 | 2156 ft | 127 kts | 279° |
| 2026-04-22 13:25 | 37.22623 | 27.76924 | 1929 ft | 126 kts | 279° |
| 2026-04-22 13:25 | 37.22876 | 27.75871 | 1716 ft | 126 kts | 279° |
| 2026-04-22 13:26 | 37.23128 | 27.74819 | 1485 ft | 125 kts | 279° |
| 2026-04-22 13:26 | 37.23373 | 27.73797 | 1286 ft | 122 kts | 280° |
| 2026-04-22 13:26 | 37.23617 | 27.72781 | 1068 ft | 121 kts | 281° |
| 2026-04-22 13:26 | 37.23862 | 27.71756 | 844 ft | 123 kts | 282° |
| 2026-04-22 13:27 | 37.24109 | 27.70722 | 636 ft | 124 kts | 281° |
| 2026-04-22 13:27 | 37.24356 | 27.69692 | 412 ft | 123 kts | 282° |
| 2026-04-22 13:27 | 37.24603 | 27.68658 | 199 ft | 126 kts | 284° |
| 2026-04-22 13:27 | 37.24851 | 27.67616 | 35 ft | 115 kts | 285° |
| 2026-04-22 13:28 | 37.25002 | 27.66986 | 29 ft | 43 kts | 289° |
| 2026-04-22 13:28 | 37.25075 | 27.66687 | 30 ft | 32 kts | 285° |
| 2026-04-22 13:28 | 37.25128 | 27.66436 | 31 ft | 28 kts | 288° |
| 2026-04-22 13:28 | 37.25183 | 27.66203 | 30 ft | 28 kts | 285° |
| 2026-04-22 13:29 | 37.25233 | 27.65971 | 30 ft | 28 kts | 284° |
| 2026-04-22 13:29 | 37.25247 | 27.65751 | 29 ft | 24 kts | 264° |
| 2026-04-22 13:29 | 37.25217 | 27.65607 | 30 ft | 12 kts | 231° |
| 2026-04-22 13:29 | 37.25155 | 27.65626 | 30 ft | 11 kts | 117° |
| 2026-04-22 13:30 | 37.25123 | 27.65750 | 30 ft | 21 kts | 108° |
| 2026-04-22 13:30 | 37.25082 | 27.65912 | 15 ft | 14 kts | 106° |
| 2026-04-22 13:30 | 37.25012 | 27.65955 | 31 ft | 13 kts | 192° |
| 2026-04-22 13:30 | 37.24926 | 27.65967 | 31 ft | 13 kts | 120° |
| 2026-04-22 13:31 | 37.24898 | 27.66075 | 31 ft | 13 kts | 107° |
| 2026-04-22 13:31 | 37.24873 | 27.66177 | 31 ft | 12 kts | 107° |
| 2026-04-22 13:31 | 37.24849 | 27.66273 | 30 ft | 11 kts | 107° |
| 2026-04-22 13:31 | 37.24868 | 27.66333 | 30 ft | 1 kts | 23° |
| 2026-04-22 13:32 | 37.24875 | 27.66336 | 30 ft | 1 kts | 22° |